createdAt,value
2018-11-27T00:00:04.596Z,23.04
2018-11-27T00:00:40.053Z,22.98
2018-11-27T00:01:15.678Z,22.99
2018-11-27T00:01:50.999Z,22.94
2018-11-27T00:02:26.661Z,22.89
2018-11-27T00:03:03.786Z,22.79
2018-11-27T00:03:44.318Z,22.77
2018-11-27T00:04:19.805Z,22.86
2018-11-27T00:04:55.304Z,22.81
2018-11-27T00:05:31.765Z,22.87
2018-11-27T00:06:07.197Z,22.81
2018-11-27T00:06:42.826Z,22.79
2018-11-27T00:07:18.115Z,22.74
2018-11-27T00:07:53.616Z,22.77
2018-11-27T00:08:28.970Z,22.73
2018-11-27T00:09:04.588Z,22.74
2018-11-27T00:09:39.863Z,22.79
2018-11-27T00:10:15.425Z,22.99
2018-11-27T00:10:50.827Z,23.03
2018-11-27T00:11:26.149Z,23.02
2018-11-27T00:12:01.562Z,22.97
2018-11-27T00:12:37.175Z,22.93
2018-11-27T00:13:12.395Z,22.94
2018-11-27T00:13:47.625Z,22.90
2018-11-27T00:14:22.925Z,22.89
2018-11-27T00:14:58.308Z,22.78
2018-11-27T00:15:33.554Z,22.91
2018-11-27T00:16:09.143Z,22.86
2018-11-27T00:16:44.883Z,22.94
2018-11-27T00:17:20.363Z,22.78
2018-11-27T00:17:55.702Z,22.72
2018-11-27T00:18:31.112Z,22.69
2018-11-27T00:19:06.721Z,22.74
2018-11-27T00:19:42.060Z,22.69
2018-11-27T00:20:17.412Z,22.70
2018-11-27T00:20:52.952Z,22.75
2018-11-27T00:21:28.239Z,22.73
2018-11-27T00:22:04.061Z,22.78
2018-11-27T00:22:39.923Z,22.73
2018-11-27T00:23:15.460Z,22.81
2018-11-27T00:23:50.888Z,22.92
2018-11-27T00:24:26.712Z,22.87
2018-11-27T00:25:02.139Z,22.72
2018-11-27T00:25:38.145Z,22.69
2018-11-27T00:26:13.691Z,22.73
2018-11-27T00:26:49.207Z,22.69
2018-11-27T00:27:24.666Z,22.61
2018-11-27T00:28:00.405Z,22.56
2018-11-27T00:28:35.964Z,22.57
2018-11-27T00:29:11.290Z,22.61
2018-11-27T00:29:46.744Z,22.60
2018-11-27T00:30:22.733Z,22.65
2018-11-27T00:30:58.154Z,22.69
2018-11-27T00:31:33.555Z,22.72
2018-11-27T00:32:08.946Z,22.78
2018-11-27T00:32:44.313Z,22.68
2018-11-27T00:33:20.005Z,22.67
2018-11-27T00:33:55.523Z,22.65
2018-11-27T00:34:30.807Z,22.77
2018-11-27T00:35:07.238Z,22.76
2018-11-27T00:35:42.550Z,22.81
2018-11-27T00:36:17.831Z,22.69
2018-11-27T00:36:53.189Z,22.62
2018-11-27T00:37:28.498Z,22.54
2018-11-27T00:38:03.889Z,22.53
2018-11-27T00:38:39.380Z,22.57
2018-11-27T00:39:14.575Z,22.56
2018-11-27T00:39:49.971Z,22.58
2018-11-27T00:40:25.428Z,22.56
2018-11-27T00:41:00.861Z,22.57
2018-11-27T00:41:36.296Z,22.59
2018-11-27T00:42:11.551Z,22.59
2018-11-27T00:42:47.169Z,22.61
2018-11-27T00:43:22.550Z,22.64
2018-11-27T00:43:57.914Z,22.63
2018-11-27T00:44:33.193Z,22.65
2018-11-27T00:45:13.539Z,22.64
2018-11-27T00:45:48.966Z,22.60
2018-11-27T00:46:24.629Z,22.67
2018-11-27T00:46:59.710Z,22.64
2018-11-27T00:47:35.315Z,22.66
2018-11-27T00:48:10.649Z,22.67
2018-11-27T00:48:46.074Z,22.70
2018-11-27T00:49:21.626Z,22.77
2018-11-27T00:49:56.998Z,22.83
2018-11-27T00:50:32.274Z,22.84
2018-11-27T00:51:08.405Z,22.88
2018-11-27T00:51:44.088Z,22.86
2018-11-27T00:52:19.544Z,22.89
2018-11-27T00:52:54.912Z,22.88
2018-11-27T00:53:30.391Z,22.88
2018-11-27T00:54:05.828Z,22.91
2018-11-27T00:54:41.120Z,22.93
2018-11-27T00:55:17.294Z,23.01
2018-11-27T00:55:52.754Z,23.00
2018-11-27T00:56:28.090Z,23.03
2018-11-27T00:57:03.402Z,23.09
2018-11-27T00:57:39.473Z,23.07
2018-11-27T00:58:15.381Z,23.12
2018-11-27T00:58:50.692Z,23.12
2018-11-27T00:59:26.197Z,23.17
2018-11-27T01:00:01.597Z,23.19
2018-11-27T01:00:37.166Z,23.17
2018-11-27T01:01:12.449Z,23.18
2018-11-27T01:01:47.861Z,23.21
2018-11-27T01:02:23.079Z,23.23
2018-11-27T01:02:58.429Z,23.26
2018-11-27T01:03:33.839Z,23.29
2018-11-27T01:04:09.294Z,23.29
2018-11-27T01:04:44.798Z,23.27
2018-11-27T01:05:22.356Z,23.27
2018-11-27T01:05:57.880Z,23.28
2018-11-27T01:06:33.292Z,23.31
2018-11-27T01:07:08.770Z,23.23
2018-11-27T01:07:44.420Z,23.22
2018-11-27T01:08:19.789Z,23.17
2018-11-27T01:08:55.111Z,23.18
2018-11-27T01:09:30.499Z,23.22
2018-11-27T01:10:07.952Z,23.22
2018-11-27T01:10:43.434Z,23.25
2018-11-27T01:11:18.781Z,23.22
2018-11-27T01:11:54.171Z,23.23
2018-11-27T01:12:29.706Z,23.18
2018-11-27T01:13:05.796Z,23.18
2018-11-27T01:13:41.315Z,23.10
2018-11-27T01:14:16.810Z,23.11
2018-11-27T01:14:52.065Z,23.04
2018-11-27T01:15:27.480Z,22.99
2018-11-27T01:16:02.823Z,22.93
2018-11-27T01:16:38.249Z,23.00
2018-11-27T01:17:13.667Z,22.97
2018-11-27T01:17:50.967Z,22.92
2018-11-27T01:18:26.500Z,22.87
2018-11-27T01:19:08.795Z,22.88
2018-11-27T01:19:44.269Z,22.81
2018-11-27T01:20:20.602Z,22.85
2018-11-27T01:20:55.841Z,22.76
2018-11-27T01:21:31.511Z,22.78
2018-11-27T01:22:07.245Z,22.77
2018-11-27T01:22:42.641Z,22.76
2018-11-27T01:23:18.167Z,22.74
2018-11-27T01:23:53.468Z,22.73
2018-11-27T01:24:28.963Z,22.70
2018-11-27T01:25:04.426Z,22.74
2018-11-27T01:25:39.759Z,22.73
2018-11-27T01:26:15.093Z,22.64
2018-11-27T01:26:50.372Z,22.71
2018-11-27T01:27:25.781Z,22.70
2018-11-27T01:28:01.299Z,22.71
2018-11-27T01:28:36.750Z,22.72
2018-11-27T01:29:12.331Z,22.70
2018-11-27T01:29:47.701Z,22.68
2018-11-27T01:30:24.302Z,22.69
2018-11-27T01:31:00.011Z,22.66
2018-11-27T01:31:35.502Z,22.68
2018-11-27T01:32:11.050Z,22.66
2018-11-27T01:32:46.900Z,22.69
2018-11-27T01:33:22.136Z,22.68
2018-11-27T01:33:57.661Z,22.68
2018-11-27T01:34:32.987Z,22.69
2018-11-27T01:35:12.300Z,22.63
2018-11-27T01:35:47.717Z,22.69
2018-11-27T01:36:23.303Z,22.65
2018-11-27T01:36:58.764Z,22.60
2018-11-27T01:37:34.122Z,22.67
2018-11-27T01:38:09.571Z,22.66
2018-11-27T01:38:45.011Z,22.65
2018-11-27T01:39:20.435Z,22.63
2018-11-27T01:39:56.329Z,22.63
2018-11-27T01:40:31.735Z,22.62
2018-11-27T01:41:07.499Z,22.60
2018-11-27T01:41:42.804Z,22.58
2018-11-27T01:42:18.173Z,22.63
2018-11-27T01:42:54.643Z,22.57
2018-11-27T01:43:30.092Z,22.64
2018-11-27T01:44:05.485Z,22.64
2018-11-27T01:44:40.891Z,22.64
2018-11-27T01:45:18.300Z,22.61
2018-11-27T01:45:53.784Z,22.67
2018-11-27T01:46:29.076Z,22.66
2018-11-27T01:47:04.289Z,22.66
2018-11-27T01:47:39.783Z,22.67
2018-11-27T01:48:15.251Z,22.71
2018-11-27T01:48:50.811Z,22.69
2018-11-27T01:49:26.047Z,22.68
2018-11-27T01:50:01.495Z,22.69
2018-11-27T01:50:37.057Z,22.72
2018-11-27T01:51:12.418Z,22.69
2018-11-27T01:51:47.817Z,22.65
2018-11-27T01:52:23.424Z,22.67
2018-11-27T01:52:58.750Z,22.67
2018-11-27T01:53:34.181Z,22.67
2018-11-27T01:54:09.630Z,22.67
2018-11-27T01:54:45.038Z,22.68
2018-11-27T01:55:22.580Z,22.72
2018-11-27T01:55:58.093Z,22.65
2018-11-27T01:56:33.737Z,22.67
2018-11-27T01:57:09.498Z,22.65
2018-11-27T01:57:45.133Z,22.65
2018-11-27T01:58:20.396Z,22.66
2018-11-27T01:58:55.968Z,22.67
2018-11-27T01:59:31.051Z,22.62
2018-11-27T02:00:10.037Z,22.62
2018-11-27T02:00:45.626Z,22.64
2018-11-27T02:01:20.935Z,22.63
2018-11-27T02:01:56.530Z,22.63
2018-11-27T02:02:31.881Z,22.63
2018-11-27T02:03:07.387Z,22.63
2018-11-27T02:03:43.019Z,22.64
2018-11-27T02:04:18.779Z,22.65
2018-11-27T02:04:54.333Z,22.65
2018-11-27T02:05:30.583Z,22.62
2018-11-27T02:06:06.453Z,22.58
2018-11-27T02:06:42.022Z,22.58
2018-11-27T02:07:17.818Z,22.65
2018-11-27T02:07:53.444Z,22.58
2018-11-27T02:08:29.130Z,22.60
2018-11-27T02:09:04.644Z,22.68
2018-11-27T02:09:40.207Z,22.65
2018-11-27T02:10:15.835Z,22.64
2018-11-27T02:10:51.433Z,22.64
2018-11-27T02:11:27.122Z,22.66
2018-11-27T02:12:02.572Z,22.61
2018-11-27T02:12:38.685Z,22.83
2018-11-27T02:13:14.110Z,22.77
2018-11-27T02:13:49.467Z,22.71
2018-11-27T02:14:24.987Z,22.65
2018-11-27T02:15:00.220Z,22.65
2018-11-27T02:15:35.449Z,22.65
2018-11-27T02:16:10.627Z,22.59
2018-11-27T02:16:46.530Z,22.65
2018-11-27T02:17:21.940Z,22.67
2018-11-27T02:17:57.319Z,22.63
2018-11-27T02:18:32.974Z,22.67
2018-11-27T02:19:08.213Z,22.63
2018-11-27T02:19:43.504Z,22.63
2018-11-27T02:20:19.020Z,22.74
2018-11-27T02:20:54.527Z,22.72
2018-11-27T02:21:29.666Z,22.64
2018-11-27T02:22:05.278Z,22.67
2018-11-27T02:22:40.738Z,22.69
2018-11-27T02:23:16.339Z,22.61
2018-11-27T02:23:51.658Z,22.69
2018-11-27T02:24:26.930Z,22.69
2018-11-27T02:25:02.271Z,22.60
2018-11-27T02:25:37.786Z,22.69
2018-11-27T02:26:13.130Z,22.68
2018-11-27T02:26:48.597Z,22.72
2018-11-27T02:27:23.817Z,22.72
2018-11-27T02:27:59.198Z,22.65
2018-11-27T02:28:34.653Z,22.61
2018-11-27T02:29:10.126Z,22.59
2018-11-27T02:29:45.626Z,22.55
2018-11-27T02:30:22.964Z,22.53
2018-11-27T02:30:58.557Z,22.64
2018-11-27T02:31:34.099Z,22.65
2018-11-27T02:32:09.726Z,22.66
2018-11-27T02:32:45.145Z,22.59
2018-11-27T02:33:20.384Z,22.66
2018-11-27T02:33:55.883Z,22.70
2018-11-27T02:34:31.095Z,22.71
2018-11-27T02:35:07.907Z,22.65
2018-11-27T02:35:43.286Z,22.58
2018-11-27T02:36:18.913Z,22.52
2018-11-27T02:36:54.562Z,22.49
2018-11-27T02:37:29.911Z,22.52
2018-11-27T02:38:05.491Z,22.41
2018-11-27T02:38:40.793Z,22.33
2018-11-27T02:39:16.370Z,22.38
2018-11-27T02:39:51.887Z,22.36
2018-11-27T02:40:27.872Z,22.34
2018-11-27T02:41:04.174Z,22.43
2018-11-27T02:41:40.365Z,22.39
2018-11-27T02:42:16.630Z,22.39
2018-11-27T02:42:52.590Z,22.38
2018-11-27T02:43:29.008Z,22.35
2018-11-27T02:44:05.234Z,22.37
2018-11-27T02:44:41.852Z,22.38
2018-11-27T02:45:20.488Z,22.39
2018-11-27T02:45:56.804Z,22.42
2018-11-27T02:46:32.319Z,22.32
2018-11-27T02:47:07.932Z,22.30
2018-11-27T02:47:43.652Z,22.27
2018-11-27T02:48:19.103Z,22.32
2018-11-27T02:48:54.321Z,22.30
2018-11-27T02:49:29.630Z,22.31
2018-11-27T02:50:05.593Z,22.32
2018-11-27T02:50:40.866Z,22.45
2018-11-27T02:51:16.182Z,22.39
2018-11-27T02:51:52.035Z,22.38
2018-11-27T02:52:27.470Z,22.36
2018-11-27T02:53:02.735Z,22.33
2018-11-27T02:53:38.146Z,22.33
2018-11-27T02:54:13.461Z,22.32
2018-11-27T02:54:49.008Z,22.33
2018-11-27T02:55:26.319Z,22.29
2018-11-27T02:56:01.668Z,22.28
2018-11-27T02:56:36.935Z,22.28
2018-11-27T02:57:12.645Z,22.30
2018-11-27T02:57:48.223Z,22.27
2018-11-27T02:58:23.398Z,22.34
2018-11-27T02:58:58.943Z,22.32
2018-11-27T02:59:34.224Z,22.32
2018-11-27T03:00:12.730Z,22.23
2018-11-27T03:00:48.588Z,22.39
2018-11-27T03:01:23.850Z,22.39
2018-11-27T03:01:59.142Z,22.34
2018-11-27T03:02:34.542Z,22.30
2018-11-27T03:03:10.083Z,22.27
2018-11-27T03:03:45.506Z,22.34
2018-11-27T03:04:20.938Z,22.25
2018-11-27T03:04:56.400Z,22.24
2018-11-27T03:05:33.557Z,22.23
2018-11-27T03:06:09.198Z,22.22
2018-11-27T03:06:44.688Z,22.27
2018-11-27T03:07:20.163Z,22.27
2018-11-27T03:07:55.539Z,22.31
2018-11-27T03:08:31.057Z,22.32
2018-11-27T03:09:10.186Z,22.29
2018-11-27T03:09:45.390Z,22.27
2018-11-27T03:10:20.760Z,22.29
2018-11-27T03:10:56.259Z,22.28
2018-11-27T03:11:31.549Z,22.37
2018-11-27T03:12:07.096Z,22.30
2018-11-27T03:12:42.422Z,22.25
2018-11-27T03:13:17.955Z,22.29
2018-11-27T03:13:53.443Z,22.27
2018-11-27T03:14:28.736Z,22.27
2018-11-27T03:15:04.133Z,22.22
2018-11-27T03:15:39.735Z,22.30
2018-11-27T03:16:15.325Z,22.25
2018-11-27T03:16:50.964Z,22.22
2018-11-27T03:17:26.362Z,22.23
2018-11-27T03:18:01.852Z,22.19
2018-11-27T03:18:37.329Z,22.21
2018-11-27T03:19:12.760Z,22.23
2018-11-27T03:19:48.187Z,22.27
2018-11-27T03:20:24.212Z,22.30
2018-11-27T03:21:00.108Z,22.29
2018-11-27T03:21:35.489Z,22.26
2018-11-27T03:22:10.799Z,22.19
2018-11-27T03:22:46.222Z,22.27
2018-11-27T03:23:21.648Z,22.23
2018-11-27T03:23:57.195Z,22.24
2018-11-27T03:24:32.791Z,22.27
2018-11-27T03:25:10.393Z,22.28
2018-11-27T03:25:45.673Z,22.30
2018-11-27T03:26:21.083Z,22.22
2018-11-27T03:26:56.573Z,22.25
2018-11-27T03:27:32.540Z,22.20
2018-11-27T03:28:08.175Z,22.25
2018-11-27T03:28:43.736Z,22.27
2018-11-27T03:29:19.131Z,22.29
2018-11-27T03:29:54.898Z,22.23
2018-11-27T03:30:30.168Z,22.27
2018-11-27T03:31:05.646Z,22.26
2018-11-27T03:31:41.200Z,22.31
2018-11-27T03:32:16.727Z,22.23
2018-11-27T03:32:52.073Z,22.23
2018-11-27T03:33:27.624Z,22.27
2018-11-27T03:34:03.309Z,22.26
2018-11-27T03:34:38.798Z,22.29
2018-11-27T03:35:16.824Z,22.27
2018-11-27T03:35:52.743Z,22.28
2018-11-27T03:36:28.095Z,22.26
2018-11-27T03:37:03.495Z,22.28
2018-11-27T03:37:38.937Z,22.29
2018-11-27T03:38:14.370Z,22.27
2018-11-27T03:38:49.795Z,22.26
2018-11-27T03:39:25.249Z,22.26
2018-11-27T03:40:00.668Z,22.22
2018-11-27T03:40:36.235Z,22.25
2018-11-27T03:41:11.634Z,22.21
2018-11-27T03:41:46.992Z,22.15
2018-11-27T03:42:22.379Z,22.11
2018-11-27T03:42:57.953Z,22.14
2018-11-27T03:43:33.272Z,22.15
2018-11-27T03:44:08.586Z,22.24
2018-11-27T03:44:43.706Z,22.28
2018-11-27T03:45:19.698Z,22.29
2018-11-27T03:45:55.106Z,22.25
2018-11-27T03:46:30.637Z,22.26
2018-11-27T03:47:06.040Z,22.31
2018-11-27T03:47:41.711Z,22.33
2018-11-27T03:48:17.189Z,22.31
2018-11-27T03:48:53.018Z,22.33
2018-11-27T03:49:28.682Z,22.31
2018-11-27T03:50:04.471Z,22.28
2018-11-27T03:50:40.788Z,22.26
2018-11-27T03:51:16.115Z,22.25
2018-11-27T03:51:51.276Z,22.21
2018-11-27T03:52:26.790Z,22.29
2018-11-27T03:53:02.202Z,22.25
2018-11-27T03:53:37.789Z,22.19
2018-11-27T03:54:13.304Z,22.22
2018-11-27T03:54:48.797Z,22.28
2018-11-27T03:55:24.206Z,22.33
2018-11-27T03:55:59.711Z,22.39
2018-11-27T03:56:35.496Z,22.31
2018-11-27T03:57:11.202Z,22.33
2018-11-27T03:57:46.574Z,22.30
2018-11-27T03:58:21.781Z,22.40
2018-11-27T03:58:57.167Z,22.40
2018-11-27T03:59:32.590Z,22.35
2018-11-27T04:00:12.535Z,22.31
2018-11-27T04:00:48.146Z,22.30
2018-11-27T04:01:23.547Z,22.34
2018-11-27T04:01:59.189Z,22.32
2018-11-27T04:02:34.746Z,22.30
2018-11-27T04:03:12.068Z,22.36
2018-11-27T04:03:47.490Z,22.26
2018-11-27T04:04:22.951Z,22.24
2018-11-27T04:04:58.286Z,22.24
2018-11-27T04:05:33.595Z,22.27
2018-11-27T04:06:09.140Z,22.34
2018-11-27T04:06:44.598Z,22.35
2018-11-27T04:07:19.957Z,22.27
2018-11-27T04:07:55.502Z,22.22
2018-11-27T04:08:31.166Z,22.27
2018-11-27T04:09:08.642Z,22.31
2018-11-27T04:09:44.115Z,22.34
2018-11-27T04:10:20.887Z,22.33
2018-11-27T04:10:56.273Z,22.40
2018-11-27T04:11:31.827Z,22.30
2018-11-27T04:12:06.973Z,22.28
2018-11-27T04:12:42.311Z,22.27
2018-11-27T04:13:17.728Z,22.31
2018-11-27T04:13:52.915Z,22.28
2018-11-27T04:14:28.233Z,22.26
2018-11-27T04:15:03.635Z,22.24
2018-11-27T04:15:39.080Z,22.21
2018-11-27T04:16:14.444Z,22.15
2018-11-27T04:16:49.740Z,22.12
2018-11-27T04:17:25.212Z,22.06
2018-11-27T04:18:00.917Z,22.12
2018-11-27T04:18:36.173Z,22.14
2018-11-27T04:19:11.548Z,21.98
2018-11-27T04:19:46.963Z,21.90
2018-11-27T04:20:22.263Z,21.88
2018-11-27T04:20:57.659Z,21.99
2018-11-27T04:21:33.099Z,22.02
2018-11-27T04:22:08.536Z,22.01
2018-11-27T04:22:44.966Z,22.09
2018-11-27T04:23:20.407Z,22.03
2018-11-27T04:23:55.686Z,22.02
2018-11-27T04:24:31.067Z,22.08
2018-11-27T04:25:08.076Z,22.03
2018-11-27T04:25:43.570Z,22.10
2018-11-27T04:26:18.778Z,22.16
2018-11-27T04:26:54.061Z,22.03
2018-11-27T04:27:29.313Z,22.03
2018-11-27T04:28:04.731Z,22.12
2018-11-27T04:28:40.282Z,22.02
2018-11-27T04:29:15.642Z,22.01
2018-11-27T04:29:50.955Z,22.01
2018-11-27T04:30:26.361Z,22.05
2018-11-27T04:31:01.735Z,22.13
2018-11-27T04:31:37.046Z,22.08
2018-11-27T04:32:12.440Z,22.07
2018-11-27T04:32:47.898Z,22.04
2018-11-27T04:33:23.357Z,22.02
2018-11-27T04:33:58.602Z,22.02
2018-11-27T04:34:34.046Z,22.08
2018-11-27T04:35:10.433Z,22.07
2018-11-27T04:35:45.706Z,22.16
2018-11-27T04:36:20.991Z,22.14
2018-11-27T04:36:56.345Z,22.19
2018-11-27T04:37:31.671Z,22.11
2018-11-27T04:38:08.187Z,22.15
2018-11-27T04:38:43.638Z,22.13
2018-11-27T04:39:19.016Z,22.13
2018-11-27T04:39:54.632Z,22.16
2018-11-27T04:40:29.885Z,22.12
2018-11-27T04:41:05.551Z,22.11
2018-11-27T04:41:41.101Z,22.11
2018-11-27T04:42:16.315Z,22.10
2018-11-27T04:42:51.701Z,22.09
2018-11-27T04:43:27.449Z,22.14
2018-11-27T04:44:02.727Z,22.15
2018-11-27T04:44:38.041Z,22.17
2018-11-27T04:45:22.667Z,22.19
2018-11-27T04:45:57.862Z,22.14
2018-11-27T04:46:33.136Z,22.08
2018-11-27T04:47:08.669Z,22.07
2018-11-27T04:47:44.204Z,22.10
2018-11-27T04:48:19.663Z,22.01
2018-11-27T04:48:55.160Z,22.10
2018-11-27T04:49:30.501Z,22.00
2018-11-27T04:50:06.968Z,21.94
2018-11-27T04:50:42.595Z,21.96
2018-11-27T04:51:17.983Z,21.94
2018-11-27T04:51:53.247Z,22.03
2018-11-27T04:52:28.618Z,21.98
2018-11-27T04:53:04.291Z,21.98
2018-11-27T04:53:39.676Z,22.03
2018-11-27T04:54:14.988Z,22.09
2018-11-27T04:54:50.370Z,22.17
2018-11-27T04:55:25.829Z,22.06
2018-11-27T04:56:01.027Z,22.03
2018-11-27T04:56:36.472Z,22.10
2018-11-27T04:57:12.728Z,22.05
2018-11-27T04:57:49.416Z,22.01
2018-11-27T04:58:24.976Z,21.92
2018-11-27T04:59:00.346Z,21.96
2018-11-27T04:59:35.923Z,21.98
2018-11-27T05:00:20.478Z,21.98
2018-11-27T05:00:55.771Z,21.88
2018-11-27T05:01:31.101Z,21.94
2018-11-27T05:02:07.187Z,21.95
2018-11-27T05:02:42.551Z,21.94
2018-11-27T05:03:18.073Z,21.85
2018-11-27T05:03:53.477Z,21.89
2018-11-27T05:04:28.865Z,21.88
2018-11-27T05:05:04.161Z,21.90
2018-11-27T05:05:39.557Z,21.91
2018-11-27T05:06:15.396Z,21.87
2018-11-27T05:06:50.609Z,21.93
2018-11-27T05:07:25.917Z,21.90
2018-11-27T05:08:01.280Z,21.89
2018-11-27T05:08:36.641Z,21.93
2018-11-27T05:09:12.233Z,21.93
2018-11-27T05:09:47.595Z,21.83
2018-11-27T05:10:24.165Z,21.89
2018-11-27T05:10:59.621Z,21.82
2018-11-27T05:11:35.265Z,21.73
2018-11-27T05:12:10.586Z,21.78
2018-11-27T05:12:46.028Z,21.85
2018-11-27T05:13:21.360Z,21.87
2018-11-27T05:13:56.751Z,21.94
2018-11-27T05:14:32.214Z,22.02
2018-11-27T05:15:10.131Z,21.88
2018-11-27T05:15:45.299Z,21.87
2018-11-27T05:16:20.585Z,21.88
2018-11-27T05:16:56.006Z,21.92
2018-11-27T05:17:31.445Z,21.86
2018-11-27T05:18:06.792Z,21.87
2018-11-27T05:18:42.296Z,21.87
2018-11-27T05:19:17.688Z,21.81
2018-11-27T05:19:53.108Z,21.82
2018-11-27T05:20:28.579Z,21.79
2018-11-27T05:21:03.952Z,21.76
2018-11-27T05:21:39.243Z,21.74
2018-11-27T05:22:14.583Z,21.75
2018-11-27T05:22:49.946Z,21.75
2018-11-27T05:23:25.401Z,21.68
2018-11-27T05:24:01.061Z,21.75
2018-11-27T05:24:36.686Z,21.78
2018-11-27T05:25:15.464Z,21.76
2018-11-27T05:25:51.026Z,21.72
2018-11-27T05:26:26.461Z,21.75
2018-11-27T05:27:01.783Z,21.71
2018-11-27T05:27:37.209Z,21.83
2018-11-27T05:28:12.612Z,21.91
2018-11-27T05:28:47.897Z,21.94
2018-11-27T05:29:23.293Z,21.87
2018-11-27T05:29:58.773Z,21.82
2018-11-27T05:30:34.151Z,21.82
2018-11-27T05:31:09.707Z,21.81
2018-11-27T05:31:45.233Z,21.78
2018-11-27T05:32:20.525Z,21.79
2018-11-27T05:32:55.907Z,21.79
2018-11-27T05:33:31.139Z,21.79
2018-11-27T05:34:06.852Z,21.82
2018-11-27T05:34:42.210Z,21.85
2018-11-27T05:35:20.654Z,21.90
2018-11-27T05:35:56.044Z,21.89
2018-11-27T05:36:31.500Z,21.84
2018-11-27T05:37:07.385Z,21.82
2018-11-27T05:37:43.409Z,21.85
2018-11-27T05:38:18.653Z,21.86
2018-11-27T05:38:54.067Z,21.84
2018-11-27T05:39:29.445Z,21.81
2018-11-27T05:40:05.649Z,21.83
2018-11-27T05:40:41.181Z,21.79
2018-11-27T05:41:16.812Z,21.79
2018-11-27T05:41:52.429Z,21.77
2018-11-27T05:42:27.870Z,21.75
2018-11-27T05:43:07.556Z,21.78
2018-11-27T05:43:46.145Z,21.76
2018-11-27T05:44:19.916Z,21.78
2018-11-27T05:44:55.273Z,21.79
2018-11-27T05:45:30.820Z,21.72
2018-11-27T05:46:06.443Z,21.76
2018-11-27T05:46:42.115Z,21.79
2018-11-27T05:47:17.519Z,21.76
2018-11-27T05:47:53.197Z,21.74
2018-11-27T05:48:28.759Z,21.72
2018-11-27T05:49:04.128Z,21.72
2018-11-27T05:49:39.472Z,21.75
2018-11-27T05:50:16.251Z,21.74
2018-11-27T05:50:51.716Z,21.75
2018-11-27T05:51:27.064Z,21.75
2018-11-27T05:52:02.564Z,21.71
2018-11-27T05:52:37.915Z,21.76
2018-11-27T05:53:13.507Z,21.73
2018-11-27T05:53:48.997Z,21.69
2018-11-27T05:54:24.424Z,21.67
2018-11-27T05:54:59.766Z,21.66
2018-11-27T05:55:35.395Z,21.74
2018-11-27T05:56:10.847Z,21.75
2018-11-27T05:56:46.270Z,21.72
2018-11-27T05:57:21.642Z,21.68
2018-11-27T05:57:58.590Z,21.72
2018-11-27T05:58:34.052Z,21.71
2018-11-27T05:59:09.636Z,21.69
2018-11-27T05:59:45.023Z,21.68
2018-11-27T06:00:21.513Z,21.68
2018-11-27T06:00:56.867Z,21.70
2018-11-27T06:01:32.299Z,21.69
2018-11-27T06:02:07.643Z,21.70
2018-11-27T06:02:42.938Z,21.72
2018-11-27T06:03:18.289Z,21.69
2018-11-27T06:03:54.195Z,21.69
2018-11-27T06:04:29.799Z,21.69
2018-11-27T06:05:05.335Z,21.66
2018-11-27T06:05:41.177Z,21.73
2018-11-27T06:06:16.567Z,21.75
2018-11-27T06:06:51.991Z,21.76
2018-11-27T06:07:27.224Z,21.77
2018-11-27T06:08:02.666Z,21.74
2018-11-27T06:08:38.084Z,21.77
2018-11-27T06:09:13.552Z,21.74
2018-11-27T06:09:48.790Z,21.73
2018-11-27T06:10:24.751Z,21.76
2018-11-27T06:11:00.251Z,21.76
2018-11-27T06:11:35.540Z,21.73
2018-11-27T06:12:10.871Z,21.68
2018-11-27T06:12:46.269Z,21.72
2018-11-27T06:13:21.693Z,21.73
2018-11-27T06:13:57.278Z,21.73
2018-11-27T06:14:32.839Z,21.77
2018-11-27T06:15:10.150Z,21.70
2018-11-27T06:15:45.545Z,21.67
2018-11-27T06:16:20.800Z,21.71
2018-11-27T06:16:55.943Z,21.71
2018-11-27T06:17:31.389Z,21.65
2018-11-27T06:18:07.098Z,21.61
2018-11-27T06:18:42.453Z,21.58
2018-11-27T06:19:17.945Z,21.65
2018-11-27T06:19:53.539Z,21.70
2018-11-27T06:20:28.979Z,21.71
2018-11-27T06:21:04.459Z,21.73
2018-11-27T06:21:40.199Z,21.73
2018-11-27T06:22:15.580Z,21.75
2018-11-27T06:22:50.913Z,21.73
2018-11-27T06:23:26.299Z,21.72
2018-11-27T06:24:01.649Z,21.73
2018-11-27T06:24:37.100Z,21.68
2018-11-27T06:25:15.622Z,21.70
2018-11-27T06:25:50.864Z,21.68
2018-11-27T06:26:26.344Z,21.64
2018-11-27T06:27:01.659Z,21.67
2018-11-27T06:27:37.168Z,21.79
2018-11-27T06:28:12.470Z,21.73
2018-11-27T06:28:47.874Z,21.78
2018-11-27T06:29:23.256Z,21.72
2018-11-27T06:29:58.531Z,21.63
2018-11-27T06:30:35.327Z,21.60
2018-11-27T06:31:10.876Z,21.61
2018-11-27T06:31:46.672Z,21.65
2018-11-27T06:32:22.337Z,21.79
2018-11-27T06:32:57.632Z,21.71
2018-11-27T06:33:32.722Z,21.71
2018-11-27T06:34:08.650Z,21.69
2018-11-27T06:34:44.006Z,21.65
2018-11-27T06:35:21.169Z,21.60
2018-11-27T06:35:56.575Z,21.60
2018-11-27T06:36:32.110Z,21.63
2018-11-27T06:37:07.593Z,21.66
2018-11-27T06:37:42.797Z,21.69
2018-11-27T06:38:18.196Z,21.72
2018-11-27T06:38:53.423Z,21.71
2018-11-27T06:39:28.913Z,21.73
2018-11-27T06:40:04.859Z,21.72
2018-11-27T06:40:41.250Z,21.79
2018-11-27T06:41:16.860Z,21.75
2018-11-27T06:41:52.144Z,21.78
2018-11-27T06:42:27.624Z,21.85
2018-11-27T06:43:03.267Z,21.77
2018-11-27T06:43:38.516Z,21.64
2018-11-27T06:44:13.930Z,21.64
2018-11-27T06:44:49.320Z,21.65
2018-11-27T06:45:24.738Z,21.71
2018-11-27T06:46:00.118Z,21.65
2018-11-27T06:46:35.506Z,21.65
2018-11-27T06:47:10.865Z,21.60
2018-11-27T06:47:47.009Z,21.63
2018-11-27T06:48:22.275Z,21.63
2018-11-27T06:48:57.572Z,21.61
2018-11-27T06:49:33.168Z,21.63
2018-11-27T06:50:10.590Z,21.57
2018-11-27T06:50:46.063Z,21.62
2018-11-27T06:51:21.332Z,21.58
2018-11-27T06:51:56.869Z,21.61
2018-11-27T06:52:32.219Z,21.60
2018-11-27T06:53:08.933Z,21.57
2018-11-27T06:53:44.236Z,21.59
2018-11-27T06:54:19.584Z,21.62
2018-11-27T06:54:54.987Z,21.64
2018-11-27T06:55:30.309Z,21.63
2018-11-27T06:56:05.758Z,21.57
2018-11-27T06:56:41.173Z,21.55
2018-11-27T06:57:16.720Z,21.57
2018-11-27T06:57:52.170Z,21.56
2018-11-27T06:58:27.549Z,21.51
2018-11-27T06:59:02.805Z,21.58
2018-11-27T06:59:38.233Z,21.55
2018-11-27T07:00:19.205Z,21.55
2018-11-27T07:00:54.665Z,21.70
2018-11-27T07:01:29.961Z,21.73
2018-11-27T07:02:06.366Z,21.69
2018-11-27T07:02:42.037Z,21.62
2018-11-27T07:03:17.301Z,21.67
2018-11-27T07:03:52.777Z,21.72
2018-11-27T07:04:28.425Z,21.63
2018-11-27T07:05:03.862Z,21.63
2018-11-27T07:05:39.680Z,21.64
2018-11-27T07:06:14.893Z,21.75
2018-11-27T07:06:50.153Z,21.73
2018-11-27T07:07:25.534Z,21.67
2018-11-27T07:08:00.891Z,21.68
2018-11-27T07:08:36.032Z,21.71
2018-11-27T07:09:11.925Z,21.62
2018-11-27T07:09:47.273Z,21.60
2018-11-27T07:10:28.582Z,21.59
2018-11-27T07:11:03.834Z,21.69
2018-11-27T07:11:39.291Z,21.64
2018-11-27T07:12:15.541Z,21.66
2018-11-27T07:12:52.357Z,21.62
2018-11-27T07:13:29.163Z,21.62
2018-11-27T07:14:03.474Z,21.65
2018-11-27T07:14:38.970Z,21.67
2018-11-27T07:15:16.938Z,21.68
2018-11-27T07:15:52.940Z,21.58
2018-11-27T07:16:28.447Z,21.45
2018-11-27T07:17:03.889Z,21.47
2018-11-27T07:17:39.129Z,21.48
2018-11-27T07:18:14.593Z,21.48
2018-11-27T07:18:49.880Z,21.56
2018-11-27T07:19:25.229Z,21.56
2018-11-27T07:20:01.078Z,21.56
2018-11-27T07:20:36.529Z,21.49
2018-11-27T07:21:11.691Z,21.57
2018-11-27T07:21:47.112Z,21.47
2018-11-27T07:22:22.539Z,21.55
2018-11-27T07:22:57.772Z,21.53
2018-11-27T07:23:33.132Z,21.47
2018-11-27T07:24:08.337Z,21.51
2018-11-27T07:24:43.706Z,21.55
2018-11-27T07:25:19.040Z,21.45
2018-11-27T07:25:54.697Z,21.50
2018-11-27T07:26:30.041Z,21.60
2018-11-27T07:27:05.389Z,21.55
2018-11-27T07:27:40.819Z,21.49
2018-11-27T07:28:16.015Z,21.48
2018-11-27T07:28:51.244Z,21.58
2018-11-27T07:29:26.660Z,21.51
2018-11-27T07:30:02.088Z,21.40
2018-11-27T07:30:38.660Z,21.45
2018-11-27T07:31:14.173Z,21.47
2018-11-27T07:31:49.519Z,21.48
2018-11-27T07:32:24.806Z,21.47
2018-11-27T07:33:00.311Z,21.37
2018-11-27T07:33:35.529Z,21.27
2018-11-27T07:34:10.953Z,21.37
2018-11-27T07:34:46.203Z,21.34
2018-11-27T07:35:22.019Z,21.31
2018-11-27T07:35:57.582Z,21.40
2018-11-27T07:36:32.893Z,21.47
2018-11-27T07:37:08.114Z,21.35
2018-11-27T07:38:17.452Z,21.19
2018-11-27T07:39:33.222Z,21.24
2018-11-27T07:40:12.388Z,21.27